createdAt,value
2019-03-28T00:01:06.155Z,32.40
2019-03-28T00:03:38.795Z,32.36
2019-03-28T00:06:13.200Z,32.08
2019-03-28T00:08:45.882Z,32.14
2019-03-28T00:11:18.628Z,31.97
2019-03-28T00:13:51.746Z,31.98
2019-03-28T00:16:24.410Z,31.83
2019-03-28T00:18:57.589Z,31.79
2019-03-28T00:21:30.404Z,31.71
2019-03-28T00:24:20.695Z,31.59
2019-03-28T00:26:53.350Z,31.61
2019-03-28T00:29:25.953Z,31.60
2019-03-28T00:31:58.623Z,31.50
2019-03-28T00:34:31.310Z,31.43
2019-03-28T00:37:03.908Z,31.28
2019-03-28T00:39:36.460Z,31.49
2019-03-28T00:42:09.039Z,31.31
2019-03-28T00:44:41.627Z,31.32
2019-03-28T00:47:14.172Z,31.31
2019-03-28T00:49:46.788Z,31.08
2019-03-28T00:52:19.257Z,30.95
2019-03-28T00:54:51.822Z,30.91
2019-03-28T00:57:24.293Z,30.93
2019-03-28T00:59:57.079Z,30.74
2019-03-28T01:02:29.615Z,30.76
2019-03-28T01:05:02.238Z,30.61
2019-03-28T01:07:34.883Z,30.58
2019-03-28T01:10:07.511Z,30.65
2019-03-28T01:12:40.168Z,30.51
2019-03-28T01:15:12.660Z,30.52
2019-03-28T01:17:45.321Z,30.36
2019-03-28T01:20:17.807Z,30.40
2019-03-28T01:22:50.140Z,30.43
2019-03-28T01:25:23.274Z,30.49
2019-03-28T01:27:55.736Z,30.54
2019-03-28T01:30:28.348Z,30.50
2019-03-28T01:33:00.943Z,30.52
2019-03-28T01:35:33.571Z,30.52
2019-03-28T01:38:06.134Z,30.48
2019-03-28T01:40:38.706Z,30.50
2019-03-28T01:43:11.277Z,30.58
2019-03-28T01:45:43.824Z,30.59
2019-03-28T01:48:16.397Z,30.56
2019-03-28T01:50:49.032Z,30.65
2019-03-28T01:53:21.726Z,30.60
2019-03-28T01:55:54.434Z,30.51
2019-03-28T01:58:27.188Z,30.31
2019-03-28T02:01:02.794Z,30.41
2019-03-28T02:03:34.170Z,30.36
2019-03-28T02:06:06.758Z,30.09
2019-03-28T02:08:39.331Z,30.15
2019-03-28T02:11:12.114Z,30.15
2019-03-28T02:13:44.793Z,30.00
2019-03-28T02:16:17.514Z,29.94
2019-03-28T02:18:50.123Z,29.87
2019-03-28T02:21:22.753Z,29.88
2019-03-28T02:23:55.265Z,29.82
2019-03-28T02:26:27.828Z,29.73
2019-03-28T02:29:00.460Z,29.70
2019-03-28T02:31:33.149Z,29.64
2019-03-28T02:34:05.727Z,29.68
2019-03-28T02:36:38.309Z,29.68
2019-03-28T02:39:10.978Z,29.66
2019-03-28T02:41:43.720Z,29.79
2019-03-28T02:44:16.268Z,29.79
2019-03-28T02:46:48.904Z,29.71
2019-03-28T02:49:21.444Z,29.77
2019-03-28T02:51:54.203Z,29.66
2019-03-28T02:54:26.848Z,29.54
2019-03-28T02:56:59.486Z,29.36
2019-03-28T02:59:32.243Z,29.35
2019-03-28T03:02:05.207Z,29.42
2019-03-28T03:04:37.781Z,29.38
2019-03-28T03:07:10.465Z,29.34
2019-03-28T03:09:43.040Z,29.28
2019-03-28T03:12:15.922Z,29.16
2019-03-28T03:14:48.593Z,29.11
2019-03-28T03:17:21.211Z,29.10
2019-03-28T03:19:53.861Z,29.11
2019-03-28T03:22:26.542Z,29.06
2019-03-28T03:24:59.129Z,29.08
2019-03-28T03:27:31.791Z,28.94
2019-03-28T03:30:08.259Z,28.88
2019-03-28T03:32:41.062Z,28.85
2019-03-28T03:35:13.679Z,28.80
2019-03-28T03:37:46.307Z,28.77
2019-03-28T03:40:18.949Z,28.94
2019-03-28T03:42:51.660Z,28.73
2019-03-28T03:45:24.334Z,28.77
2019-03-28T03:47:57.019Z,28.73
2019-03-28T03:50:30.123Z,28.75
2019-03-28T03:53:02.786Z,28.73
2019-03-28T03:55:35.465Z,28.78
2019-03-28T03:58:16.444Z,28.78
2019-03-28T04:00:43.013Z,28.80
2019-03-28T04:03:15.582Z,28.83
2019-03-28T04:05:48.653Z,28.68
2019-03-28T04:08:21.388Z,28.57
2019-03-28T04:10:56.590Z,28.30
2019-03-28T04:13:29.249Z,28.34
2019-03-28T04:16:02.250Z,28.83
2019-03-28T04:18:35.294Z,28.76
2019-03-28T04:21:08.005Z,28.62
2019-03-28T04:23:42.122Z,28.86
2019-03-28T04:26:15.309Z,29.01
2019-03-28T04:28:48.495Z,29.12
2019-03-28T04:31:23.609Z,29.21
2019-03-28T04:33:56.581Z,29.61
2019-03-28T04:36:29.615Z,29.58
2019-03-28T04:39:02.118Z,29.64
2019-03-28T04:41:35.621Z,29.81
2019-03-28T04:44:08.785Z,29.73
2019-03-28T04:46:41.556Z,29.73
2019-03-28T04:49:15.723Z,29.70
2019-03-28T04:51:48.600Z,29.61
2019-03-28T04:54:21.341Z,29.54
2019-03-28T04:56:53.909Z,29.48
2019-03-28T04:59:26.593Z,29.48
2019-03-28T05:02:03.246Z,29.48
2019-03-28T05:04:33.701Z,29.44
2019-03-28T05:07:06.371Z,29.50
2019-03-28T05:09:38.960Z,29.37
2019-03-28T05:12:11.630Z,29.37
2019-03-28T05:14:44.209Z,29.25
2019-03-28T05:17:16.794Z,29.32
2019-03-28T05:19:49.485Z,29.24
2019-03-28T05:22:22.492Z,29.11
2019-03-28T05:24:55.457Z,29.10
2019-03-28T05:27:28.560Z,29.20
2019-03-28T05:30:01.333Z,30.27
2019-03-28T05:32:34.195Z,30.61
2019-03-28T05:35:07.129Z,31.09
2019-03-28T05:37:39.728Z,31.15
2019-03-28T05:40:12.339Z,31.40
2019-03-28T05:42:45.128Z,32.56
2019-03-28T05:45:17.969Z,36.89
2019-03-28T05:47:50.582Z,38.67
2019-03-28T05:50:23.269Z,38.43
2019-03-28T05:52:55.933Z,39.10
2019-03-28T05:55:28.386Z,38.80
2019-03-28T05:58:00.995Z,39.22
2019-03-28T06:00:33.741Z,39.02
2019-03-28T06:03:06.393Z,39.95
2019-03-28T06:05:39.141Z,39.78
2019-03-28T06:08:11.861Z,39.38
2019-03-28T06:10:44.424Z,39.34
2019-03-28T06:13:17.093Z,39.87
2019-03-28T06:15:49.495Z,38.25
2019-03-28T06:18:21.977Z,37.66
2019-03-28T06:20:55.377Z,37.72
2019-03-28T06:23:28.062Z,37.85
2019-03-28T06:26:00.665Z,37.25
2019-03-28T06:28:33.301Z,36.69
2019-03-28T06:31:05.757Z,35.96
2019-03-28T06:33:38.523Z,35.70
2019-03-28T06:36:11.226Z,35.68
2019-03-28T06:38:43.614Z,36.14
2019-03-28T06:41:16.408Z,36.46
2019-03-28T06:43:48.997Z,36.62
2019-03-28T06:46:21.601Z,36.76
2019-03-28T06:48:54.116Z,37.37
2019-03-28T06:51:26.655Z,36.62
2019-03-28T06:53:59.168Z,36.27
2019-03-28T06:56:31.704Z,35.91
2019-03-28T06:59:04.531Z,35.76
2019-03-28T07:01:37.078Z,35.79
2019-03-28T07:04:09.589Z,35.30
2019-03-28T07:06:42.054Z,34.96
2019-03-28T07:09:15.942Z,34.93
2019-03-28T07:11:49.980Z,35.07
2019-03-28T07:14:22.378Z,34.69
2019-03-28T07:16:55.061Z,34.93
2019-03-28T07:19:27.631Z,34.52
2019-03-28T07:22:00.159Z,34.59
2019-03-28T07:24:32.812Z,34.31
2019-03-28T07:27:05.522Z,34.22
2019-03-28T07:29:50.246Z,34.42
2019-03-28T07:32:12.034Z,33.98
2019-03-28T07:34:47.186Z,34.31
2019-03-28T07:37:19.910Z,33.76
2019-03-28T07:39:52.302Z,33.74
2019-03-28T07:42:24.927Z,33.78
2019-03-28T07:44:58.203Z,33.16
2019-03-28T07:47:31.037Z,33.29
2019-03-28T07:50:05.050Z,33.31
2019-03-28T07:52:37.615Z,33.50
2019-03-28T07:55:10.409Z,32.94
2019-03-28T07:57:43.072Z,33.11
2019-03-28T08:00:15.667Z,33.07
2019-03-28T08:02:48.249Z,33.03
2019-03-28T08:05:20.751Z,32.67
2019-03-28T08:07:53.296Z,32.55
2019-03-28T08:10:26.363Z,31.94
2019-03-28T08:12:58.757Z,32.75
2019-03-28T08:15:31.283Z,32.43
2019-03-28T08:18:03.843Z,32.39
2019-03-28T08:20:36.494Z,31.70
2019-03-28T08:23:09.171Z,31.78
2019-03-28T08:25:41.808Z,32.25
2019-03-28T08:28:14.531Z,32.34
2019-03-28T08:30:47.215Z,32.41
2019-03-28T08:33:19.795Z,32.38
2019-03-28T08:35:52.345Z,32.04
2019-03-28T08:38:24.949Z,32.44
2019-03-28T08:40:57.461Z,31.96
2019-03-28T08:43:29.945Z,32.07
2019-03-28T08:46:02.462Z,32.31
2019-03-28T08:48:35.012Z,32.33
2019-03-28T08:51:07.561Z,31.88
2019-03-28T08:53:40.091Z,32.26
2019-03-28T08:56:12.609Z,32.29
2019-03-28T08:58:45.115Z,32.09
2019-03-28T09:01:17.561Z,31.99
2019-03-28T09:03:50.075Z,32.01
2019-03-28T09:06:22.764Z,31.91
2019-03-28T09:08:55.458Z,32.09
2019-03-28T09:11:28.139Z,31.74
2019-03-28T09:14:00.663Z,31.60
2019-03-28T09:16:33.140Z,32.39
2019-03-28T09:19:05.669Z,31.87
2019-03-28T09:21:38.362Z,32.36
2019-03-28T09:24:10.794Z,33.28
2019-03-28T09:26:40.955Z,33.63
2019-03-28T09:29:11.273Z,32.72
2019-03-28T09:31:41.606Z,32.10
2019-03-28T09:34:11.822Z,32.30
2019-03-28T09:36:42.039Z,32.14
2019-03-28T09:39:12.362Z,32.33
2019-03-28T09:41:42.897Z,31.84
2019-03-28T09:44:13.095Z,31.97
2019-03-28T09:46:43.433Z,31.71
2019-03-28T09:49:13.576Z,31.60
2019-03-28T09:51:43.779Z,31.20
2019-03-28T09:54:14.105Z,31.03
2019-03-28T09:56:44.331Z,31.45
2019-03-28T09:59:14.549Z,31.07
2019-03-28T10:01:44.995Z,30.65
2019-03-28T10:04:15.195Z,30.68
2019-03-28T10:06:45.459Z,30.66
2019-03-28T10:09:16.157Z,30.17
2019-03-28T10:11:46.479Z,30.47
2019-03-28T10:14:16.863Z,30.23
2019-03-28T10:16:47.107Z,30.92
2019-03-28T10:19:17.233Z,30.35
2019-03-28T10:21:47.356Z,30.05
2019-03-28T10:24:17.595Z,30.60
2019-03-28T10:26:47.894Z,31.35
2019-03-28T10:29:18.159Z,31.07
2019-03-28T10:31:48.422Z,30.94
2019-03-28T10:34:18.764Z,30.63
2019-03-28T10:36:49.116Z,30.05
2019-03-28T10:39:19.469Z,29.78
2019-03-28T10:41:52.834Z,29.63
2019-03-28T10:44:23.125Z,29.82
2019-03-28T10:46:53.591Z,29.62
2019-03-28T10:49:23.912Z,29.91
2019-03-28T10:51:54.347Z,30.07
2019-03-28T10:54:25.910Z,30.30
2019-03-28T10:56:58.041Z,30.59
2019-03-28T10:59:28.116Z,30.02
2019-03-28T11:01:58.466Z,31.25
2019-03-28T11:04:28.831Z,30.33
2019-03-28T11:06:59.250Z,30.04
2019-03-28T11:09:29.771Z,29.71
2019-03-28T11:12:00.147Z,29.96
2019-03-28T11:14:30.331Z,29.90
2019-03-28T11:17:00.506Z,29.91
2019-03-28T11:19:30.599Z,30.04
2019-03-28T11:22:00.696Z,29.81
2019-03-28T11:24:31.512Z,29.68
2019-03-28T11:27:01.393Z,29.91
2019-03-28T11:29:31.369Z,29.92
2019-03-28T11:32:01.684Z,29.60
2019-03-28T11:34:32.004Z,29.83
2019-03-28T11:37:02.172Z,30.25
2019-03-28T11:39:32.449Z,31.01
2019-03-28T11:42:02.677Z,32.12
2019-03-28T11:44:33.247Z,33.47
2019-03-28T11:47:03.618Z,34.42
2019-03-28T11:49:33.854Z,37.63
2019-03-28T11:52:04.069Z,37.63
2019-03-28T11:54:34.613Z,38.74
2019-03-28T11:57:05.237Z,40.27
2019-03-28T11:59:35.566Z,42.10
2019-03-28T12:02:19.072Z,42.91
2019-03-28T12:04:38.874Z,44.45
2019-03-28T12:07:09.406Z,41.91
2019-03-28T12:09:39.662Z,41.04
2019-03-28T12:12:10.065Z,40.34
2019-03-28T12:14:40.423Z,40.32
2019-03-28T12:17:10.920Z,40.94
2019-03-28T12:19:41.136Z,40.48
2019-03-28T12:22:11.506Z,40.57
2019-03-28T12:24:44.854Z,40.58
2019-03-28T12:27:15.680Z,39.24
2019-03-28T12:29:45.984Z,40.38
2019-03-28T12:32:16.338Z,40.70
2019-03-28T12:34:46.661Z,39.78
2019-03-28T12:37:16.877Z,38.96
2019-03-28T12:39:47.301Z,39.28
2019-03-28T12:42:17.626Z,39.22
2019-03-28T12:44:56.796Z,39.44
2019-03-28T12:47:19.824Z,39.43
2019-03-28T12:49:51.094Z,39.08
2019-03-28T12:52:23.657Z,39.46
2019-03-28T12:54:54.680Z,39.97
2019-03-28T12:57:25.187Z,39.09
2019-03-28T12:59:55.266Z,39.22
2019-03-28T13:02:31.311Z,39.37
2019-03-28T13:04:57.478Z,41.14
2019-03-28T13:07:27.714Z,42.62
2019-03-28T13:09:57.891Z,41.58
2019-03-28T13:12:28.286Z,40.17
2019-03-28T13:14:58.628Z,39.84
2019-03-28T13:17:32.288Z,39.62
2019-03-28T13:20:02.484Z,39.67
2019-03-28T13:22:35.795Z,39.45
2019-03-28T13:25:07.565Z,39.82
2019-03-28T13:27:37.909Z,39.40
2019-03-28T13:30:14.789Z,39.27
2019-03-28T13:32:45.006Z,40.25
2019-03-28T13:35:15.488Z,40.68
2019-03-28T13:37:45.748Z,40.93
2019-03-28T13:40:16.160Z,40.78
2019-03-28T13:42:46.455Z,40.72
2019-03-28T13:45:17.491Z,40.78
2019-03-28T13:47:47.882Z,40.96
2019-03-28T13:50:18.311Z,40.46
2019-03-28T13:52:49.522Z,40.65
2019-03-28T13:55:18.993Z,40.73
2019-03-28T13:57:52.078Z,40.86
2019-03-28T14:00:33.124Z,40.83
2019-03-28T14:03:06.519Z,41.03
2019-03-28T14:05:39.779Z,41.38
2019-03-28T14:08:10.140Z,42.47
2019-03-28T14:10:40.349Z,42.84
2019-03-28T14:13:12.282Z,42.32
2019-03-28T14:15:47.466Z,41.79
2019-03-28T14:18:18.458Z,41.92
2019-03-28T14:20:48.888Z,41.86
2019-03-28T14:23:19.240Z,41.70
2019-03-28T14:25:49.612Z,41.62
2019-03-28T14:28:20.865Z,41.71
2019-03-28T14:30:51.729Z,41.83
2019-03-28T14:33:22.044Z,41.75
2019-03-28T14:35:52.172Z,41.76
2019-03-28T14:38:22.366Z,41.50
2019-03-28T14:40:52.864Z,41.38
2019-03-28T14:43:23.328Z,41.93
2019-03-28T14:45:53.782Z,41.78
2019-03-28T14:48:24.066Z,41.36
2019-03-28T14:50:54.419Z,41.43
2019-03-28T14:53:26.221Z,41.38
2019-03-28T14:55:56.411Z,41.79
2019-03-28T14:58:26.670Z,41.48
2019-03-28T15:00:56.932Z,41.56
2019-03-28T15:03:27.776Z,41.59
2019-03-28T15:05:58.688Z,41.56
2019-03-28T15:08:29.197Z,41.40
2019-03-28T15:10:59.516Z,41.46
2019-03-28T15:13:29.944Z,41.30
2019-03-28T15:16:00.283Z,41.63
2019-03-28T15:18:30.506Z,42.13
2019-03-28T15:21:00.811Z,43.10
2019-03-28T15:23:31.137Z,42.98
2019-03-28T15:26:01.362Z,43.87
2019-03-28T15:28:31.793Z,44.93
2019-03-28T15:31:02.111Z,46.11
2019-03-28T15:33:39.456Z,45.93
2019-03-28T15:36:04.414Z,46.74
2019-03-28T15:38:34.726Z,48.65
2019-03-28T15:41:04.722Z,48.38
2019-03-28T15:43:34.965Z,47.75
2019-03-28T15:46:05.291Z,47.91
2019-03-28T15:48:36.915Z,46.57
2019-03-28T15:51:07.166Z,46.92
2019-03-28T15:53:37.388Z,47.17
2019-03-28T15:56:07.713Z,46.67
2019-03-28T15:58:38.056Z,46.96
2019-03-28T16:01:08.413Z,46.64
2019-03-28T16:03:52.098Z,45.78
2019-03-28T16:06:10.770Z,45.90
2019-03-28T16:08:41.505Z,46.04
2019-03-28T16:11:12.363Z,46.64
2019-03-28T16:13:42.640Z,46.07
2019-03-28T16:16:13.209Z,45.61
2019-03-28T16:18:43.577Z,44.64
2019-03-28T16:21:14.237Z,44.71
2019-03-28T16:23:45.020Z,44.00
2019-03-28T16:26:14.926Z,44.06
2019-03-28T16:28:45.011Z,43.85
2019-03-28T16:31:15.221Z,43.50
2019-03-28T16:33:45.540Z,43.40
2019-03-28T16:36:15.741Z,43.59
2019-03-28T16:38:48.118Z,43.30
2019-03-28T16:41:18.585Z,43.02
2019-03-28T16:43:48.898Z,42.90
2019-03-28T16:46:19.127Z,42.57
2019-03-28T16:48:49.412Z,42.70
2019-03-28T16:51:20.002Z,42.53
2019-03-28T16:53:50.325Z,42.67
2019-03-28T16:56:20.991Z,42.76
2019-03-28T16:58:55.533Z,42.78
2019-03-28T17:01:25.944Z,42.56
2019-03-28T17:03:56.433Z,42.61
2019-03-28T17:06:27.827Z,42.57
2019-03-28T17:08:58.190Z,42.34
2019-03-28T17:11:28.944Z,44.89
2019-03-28T17:14:01.227Z,45.72
2019-03-28T17:16:31.477Z,46.03
2019-03-28T17:19:02.402Z,47.16
2019-03-28T17:21:32.686Z,48.74
2019-03-28T17:24:03.226Z,49.48
2019-03-28T17:26:42.663Z,48.40
2019-03-28T17:29:14.929Z,48.00
2019-03-28T17:31:45.490Z,47.46
2019-03-28T17:34:15.872Z,47.23
2019-03-28T17:36:46.206Z,47.25
2019-03-28T17:39:16.523Z,47.21
2019-03-28T17:41:46.747Z,47.15
2019-03-28T17:44:17.389Z,47.15
2019-03-28T17:46:47.725Z,46.67
2019-03-28T17:49:19.769Z,46.21
2019-03-28T17:51:50.625Z,46.37
2019-03-28T17:54:20.938Z,46.15
2019-03-28T17:56:51.483Z,46.38
2019-03-28T17:59:21.906Z,46.49
2019-03-28T18:01:52.254Z,45.81
2019-03-28T18:04:23.474Z,45.35
2019-03-28T18:06:54.603Z,45.46
2019-03-28T18:09:24.514Z,45.13
2019-03-28T18:11:54.466Z,45.04
2019-03-28T18:14:24.667Z,44.81
2019-03-28T18:16:54.945Z,44.83
2019-03-28T18:19:25.274Z,44.82
2019-03-28T18:22:03.264Z,44.28
2019-03-28T18:24:30.275Z,45.92
2019-03-28T18:26:59.432Z,47.14
2019-03-28T18:29:29.593Z,47.29
2019-03-28T18:31:59.894Z,46.76
2019-03-28T18:34:30.056Z,45.97
2019-03-28T18:37:00.417Z,45.13
2019-03-28T18:39:30.816Z,45.54
2019-03-28T18:42:05.089Z,45.03
2019-03-28T18:44:35.896Z,44.84
2019-03-28T18:47:06.105Z,45.61
2019-03-28T18:49:36.443Z,44.92
2019-03-28T18:52:07.488Z,44.67
2019-03-28T18:54:38.037Z,44.51
2019-03-28T18:57:08.377Z,44.64
2019-03-28T18:59:38.689Z,44.63
2019-03-28T19:02:09.009Z,53.43
2019-03-28T19:04:39.239Z,52.05
2019-03-28T19:07:10.219Z,50.54
2019-03-28T19:09:41.279Z,49.97
2019-03-28T19:12:11.617Z,50.21
2019-03-28T19:14:41.853Z,50.02
2019-03-28T19:17:12.283Z,49.71
2019-03-28T19:19:43.734Z,49.52
2019-03-28T19:22:14.178Z,49.54
2019-03-28T19:24:44.999Z,49.28
2019-03-28T19:27:15.647Z,49.46
2019-03-28T19:29:46.063Z,49.28
2019-03-28T19:32:18.641Z,49.25
2019-03-28T19:34:48.970Z,48.88
2019-03-28T19:37:22.621Z,49.01
2019-03-28T19:39:51.357Z,49.02
2019-03-28T19:42:22.646Z,48.79
2019-03-28T19:44:54.050Z,48.58
2019-03-28T19:47:23.660Z,48.39
2019-03-28T19:49:53.673Z,48.46
2019-03-28T19:52:24.003Z,48.27
2019-03-28T19:54:54.333Z,48.16
2019-03-28T19:57:24.765Z,48.06
2019-03-28T19:59:58.435Z,47.97
2019-03-28T20:02:26.935Z,48.64
2019-03-28T20:04:57.283Z,48.55
2019-03-28T20:07:28.309Z,47.98
2019-03-28T20:09:58.844Z,47.37
2019-03-28T20:12:29.269Z,47.19
2019-03-28T20:15:00.267Z,47.67
2019-03-28T20:17:33.871Z,48.52
2019-03-28T20:20:06.142Z,48.59
2019-03-28T20:22:37.950Z,48.04
2019-03-28T20:25:08.508Z,47.93
2019-03-28T20:27:38.828Z,47.88
2019-03-28T20:30:09.931Z,47.56
2019-03-28T20:32:40.500Z,47.69
2019-03-28T20:35:11.021Z,47.38
2019-03-28T20:37:41.312Z,47.42
2019-03-28T20:40:11.660Z,47.12
2019-03-28T20:42:42.169Z,47.68
2019-03-28T20:45:12.601Z,47.29
2019-03-28T20:47:42.859Z,47.48
2019-03-28T20:50:13.128Z,47.46
2019-03-28T20:52:44.692Z,47.15
2019-03-28T20:55:15.249Z,47.13
2019-03-28T20:57:45.566Z,47.24
2019-03-28T21:00:15.977Z,47.04
2019-03-28T21:02:46.320Z,47.04
2019-03-28T21:05:16.665Z,46.94
2019-03-28T21:07:46.950Z,50.68
2019-03-28T21:10:25.347Z,59.68
2019-03-28T21:12:55.421Z,60.20
2019-03-28T21:15:25.706Z,60.10
2019-03-28T21:17:55.934Z,60.00
2019-03-28T21:20:26.263Z,60.21
2019-03-28T21:22:56.518Z,59.37
2019-03-28T21:25:29.404Z,58.92
2019-03-28T21:27:58.855Z,58.52
2019-03-28T21:30:29.708Z,58.32
2019-03-28T21:32:59.973Z,58.14
2019-03-28T21:35:30.448Z,58.11
2019-03-28T21:38:00.720Z,57.95
2019-03-28T21:40:30.892Z,56.48
2019-03-28T21:43:01.322Z,54.45
2019-03-28T21:45:31.625Z,53.03
2019-03-28T21:48:01.840Z,51.25
2019-03-28T21:50:32.501Z,50.53
2019-03-28T21:53:02.564Z,49.36
2019-03-28T21:55:32.779Z,48.52
2019-03-28T21:58:02.962Z,47.68
2019-03-28T22:00:33.117Z,46.91
2019-03-28T22:03:03.470Z,46.58
2019-03-28T22:05:33.837Z,45.66
2019-03-28T22:08:04.158Z,45.48
2019-03-28T22:10:34.279Z,44.63
2019-03-28T22:13:04.493Z,43.91
2019-03-28T22:15:34.705Z,43.78
2019-03-28T22:18:05.240Z,43.21
2019-03-28T22:20:35.477Z,42.92
2019-03-28T22:23:05.800Z,42.92
2019-03-28T22:25:36.231Z,42.27
2019-03-28T22:28:06.869Z,41.86
2019-03-28T22:30:37.054Z,41.51
2019-03-28T22:33:07.267Z,41.36
2019-03-28T22:35:37.533Z,40.86
2019-03-28T22:38:07.849Z,40.75
2019-03-28T22:40:38.201Z,40.76
2019-03-28T22:43:08.501Z,40.34
2019-03-28T22:45:38.929Z,40.09
2019-03-28T22:48:11.043Z,39.58
2019-03-28T22:50:41.319Z,39.47
2019-03-28T22:53:11.551Z,39.37
2019-03-28T22:55:41.759Z,39.13
2019-03-28T22:58:12.012Z,38.83
2019-03-28T23:00:44.798Z,38.31
2019-03-28T23:03:15.911Z,38.21
2019-03-28T23:05:45.921Z,38.06
2019-03-28T23:08:16.051Z,37.64
2019-03-28T23:10:46.370Z,37.53
2019-03-28T23:13:16.619Z,37.49
2019-03-28T23:15:47.223Z,37.16
2019-03-28T23:18:17.523Z,37.11
2019-03-28T23:20:47.974Z,37.01
2019-03-28T23:23:18.125Z,37.09
2019-03-28T23:25:48.364Z,36.45
2019-03-28T23:28:19.021Z,36.51
2019-03-28T23:30:49.375Z,36.51
2019-03-28T23:33:19.600Z,36.43
2019-03-28T23:35:49.857Z,36.20
2019-03-28T23:38:20.195Z,36.24
2019-03-28T23:40:50.490Z,35.84
2019-03-28T23:43:20.652Z,35.65
2019-03-28T23:45:51.015Z,35.46
2019-03-28T23:48:21.833Z,35.35
2019-03-28T23:50:51.783Z,35.23
2019-03-28T23:53:21.993Z,35.16
2019-03-28T23:55:52.185Z,35.09
2019-03-28T23:58:22.436Z,35.03
